sensor_id;sensor_type;location;lat;lon;timestamp;P1;durP1;ratioP1;P2;durP2;ratioP2
83055;SDS011;72881;43.514;1.510;2024-01-30T00:02:14;4.47;;;1.50;;
83055;SDS011;72881;43.514;1.510;2024-01-30T00:04:39;2.58;;;1.40;;
83055;SDS011;72881;43.514;1.510;2024-01-30T00:07:05;2.60;;;1.60;;
83055;SDS011;72881;43.514;1.510;2024-01-30T00:09:30;2.65;;;1.27;;
83055;SDS011;72881;43.514;1.510;2024-01-30T00:11:56;3.30;;;1.70;;
83055;SDS011;72881;43.514;1.510;2024-01-30T00:14:21;3.47;;;1.70;;
83055;SDS011;72881;43.514;1.510;2024-01-30T00:16:47;3.60;;;1.58;;
83055;SDS011;72881;43.514;1.510;2024-01-30T00:19:12;3.22;;;1.50;;
83055;SDS011;72881;43.514;1.510;2024-01-30T00:21:37;2.42;;;1.27;;
83055;SDS011;72881;43.514;1.510;2024-01-30T00:24:03;3.10;;;1.75;;
83055;SDS011;72881;43.514;1.510;2024-01-30T00:26:29;4.55;;;1.65;;
83055;SDS011;72881;43.514;1.510;2024-01-30T00:28:54;2.97;;;1.60;;
83055;SDS011;72881;43.514;1.510;2024-01-30T00:31:20;3.13;;;1.60;;
83055;SDS011;72881;43.514;1.510;2024-01-30T00:33:45;2.60;;;1.90;;
83055;SDS011;72881;43.514;1.510;2024-01-30T00:36:11;4.75;;;1.52;;
83055;SDS011;72881;43.514;1.510;2024-01-30T00:38:36;2.67;;;1.25;;
83055;SDS011;72881;43.514;1.510;2024-01-30T00:41:02;2.60;;;1.40;;
83055;SDS011;72881;43.514;1.510;2024-01-30T00:43:28;3.38;;;1.60;;
83055;SDS011;72881;43.514;1.510;2024-01-30T00:45:53;4.45;;;1.75;;
83055;SDS011;72881;43.514;1.510;2024-01-30T00:48:19;2.75;;;1.70;;
83055;SDS011;72881;43.514;1.510;2024-01-30T00:50:45;3.47;;;1.58;;
83055;SDS011;72881;43.514;1.510;2024-01-30T00:53:10;3.80;;;1.50;;
83055;SDS011;72881;43.514;1.510;2024-01-30T00:55:36;3.50;;;1.60;;
83055;SDS011;72881;43.514;1.510;2024-01-30T00:58:01;2.45;;;1.45;;
83055;SDS011;72881;43.514;1.510;2024-01-30T01:00:27;3.33;;;1.60;;
83055;SDS011;72881;43.514;1.510;2024-01-30T01:03:00;2.70;;;1.45;;
83055;SDS011;72881;43.514;1.510;2024-01-30T01:05:26;3.90;;;1.98;;
83055;SDS011;72881;43.514;1.510;2024-01-30T01:07:51;2.70;;;1.70;;
83055;SDS011;72881;43.514;1.510;2024-01-30T01:10:17;2.70;;;1.50;;
83055;SDS011;72881;43.514;1.510;2024-01-30T01:12:43;3.50;;;1.40;;
83055;SDS011;72881;43.514;1.510;2024-01-30T01:15:09;2.40;;;1.48;;
83055;SDS011;72881;43.514;1.510;2024-01-30T01:17:35;2.08;;;1.52;;
83055;SDS011;72881;43.514;1.510;2024-01-30T01:20:01;2.85;;;1.50;;
83055;SDS011;72881;43.514;1.510;2024-01-30T01:22:27;2.50;;;1.40;;
83055;SDS011;72881;43.514;1.510;2024-01-30T01:24:52;2.83;;;1.70;;
83055;SDS011;72881;43.514;1.510;2024-01-30T01:27:18;3.33;;;1.52;;
83055;SDS011;72881;43.514;1.510;2024-01-30T01:29:43;2.88;;;1.40;;
83055;SDS011;72881;43.514;1.510;2024-01-30T01:32:08;3.35;;;1.48;;
83055;SDS011;72881;43.514;1.510;2024-01-30T01:34:34;3.17;;;1.48;;
83055;SDS011;72881;43.514;1.510;2024-01-30T01:36:59;3.03;;;1.50;;
83055;SDS011;72881;43.514;1.510;2024-01-30T01:39:25;3.50;;;1.40;;
83055;SDS011;72881;43.514;1.510;2024-01-30T01:41:50;2.53;;;1.30;;
83055;SDS011;72881;43.514;1.510;2024-01-30T01:44:17;2.65;;;1.60;;
83055;SDS011;72881;43.514;1.510;2024-01-30T01:46:43;4.20;;;1.50;;
83055;SDS011;72881;43.514;1.510;2024-01-30T01:49:08;2.42;;;1.40;;
83055;SDS011;72881;43.514;1.510;2024-01-30T01:51:35;2.45;;;1.42;;
83055;SDS011;72881;43.514;1.510;2024-01-30T01:54:04;2.88;;;1.50;;
83055;SDS011;72881;43.514;1.510;2024-01-30T01:56:30;2.30;;;1.58;;
83055;SDS011;72881;43.514;1.510;2024-01-30T01:58:58;3.33;;;1.63;;
83055;SDS011;72881;43.514;1.510;2024-01-30T02:01:25;2.67;;;1.38;;
83055;SDS011;72881;43.514;1.510;2024-01-30T02:03:52;2.80;;;1.17;;
83055;SDS011;72881;43.514;1.510;2024-01-30T02:06:17;3.75;;;1.58;;
83055;SDS011;72881;43.514;1.510;2024-01-30T02:08:43;2.13;;;1.33;;
83055;SDS011;72881;43.514;1.510;2024-01-30T02:11:09;2.10;;;1.20;;
83055;SDS011;72881;43.514;1.510;2024-01-30T02:13:38;3.10;;;1.35;;
83055;SDS011;72881;43.514;1.510;2024-01-30T02:16:03;2.40;;;1.58;;
83055;SDS011;72881;43.514;1.510;2024-01-30T02:18:29;1.83;;;1.27;;
83055;SDS011;72881;43.514;1.510;2024-01-30T02:20:56;4.07;;;1.80;;
83055;SDS011;72881;43.514;1.510;2024-01-30T02:25:50;3.60;;;1.58;;
83055;SDS011;72881;43.514;1.510;2024-01-30T02:28:17;2.38;;;1.40;;
83055;SDS011;72881;43.514;1.510;2024-01-30T02:30:43;2.97;;;1.23;;
83055;SDS011;72881;43.514;1.510;2024-01-30T02:33:09;3.30;;;1.50;;
83055;SDS011;72881;43.514;1.510;2024-01-30T02:35:34;3.40;;;1.40;;
83055;SDS011;72881;43.514;1.510;2024-01-30T02:38:00;1.90;;;1.13;;
83055;SDS011;72881;43.514;1.510;2024-01-30T02:40:25;2.38;;;1.30;;
83055;SDS011;72881;43.514;1.510;2024-01-30T02:42:51;2.20;;;1.15;;
83055;SDS011;72881;43.514;1.510;2024-01-30T02:45:16;2.75;;;1.40;;
83055;SDS011;72881;43.514;1.510;2024-01-30T02:47:42;2.60;;;1.42;;
83055;SDS011;72881;43.514;1.510;2024-01-30T02:50:07;2.92;;;1.55;;
83055;SDS011;72881;43.514;1.510;2024-01-30T02:52:33;2.13;;;1.35;;
83055;SDS011;72881;43.514;1.510;2024-01-30T02:54:59;1.95;;;1.13;;
83055;SDS011;72881;43.514;1.510;2024-01-30T02:57:24;3.03;;;1.65;;
83055;SDS011;72881;43.514;1.510;2024-01-30T02:59:49;1.92;;;1.17;;
83055;SDS011;72881;43.514;1.510;2024-01-30T03:02:15;2.88;;;1.40;;
83055;SDS011;72881;43.514;1.510;2024-01-30T03:04:41;2.25;;;1.35;;
83055;SDS011;72881;43.514;1.510;2024-01-30T03:07:07;2.65;;;1.60;;
83055;SDS011;72881;43.514;1.510;2024-01-30T03:09:32;2.10;;;1.30;;
83055;SDS011;72881;43.514;1.510;2024-01-30T03:11:58;2.50;;;1.35;;
83055;SDS011;72881;43.514;1.510;2024-01-30T03:14:23;3.25;;;1.50;;
83055;SDS011;72881;43.514;1.510;2024-01-30T03:16:49;2.63;;;1.30;;
83055;SDS011;72881;43.514;1.510;2024-01-30T03:19:14;2.08;;;1.33;;
83055;SDS011;72881;43.514;1.510;2024-01-30T03:21:39;2.05;;;1.20;;
83055;SDS011;72881;43.514;1.510;2024-01-30T03:24:05;2.75;;;1.33;;
83055;SDS011;72881;43.514;1.510;2024-01-30T03:26:30;2.45;;;1.33;;
83055;SDS011;72881;43.514;1.510;2024-01-30T03:28:56;2.33;;;1.48;;
83055;SDS011;72881;43.514;1.510;2024-01-30T03:31:21;2.00;;;1.30;;
83055;SDS011;72881;43.514;1.510;2024-01-30T03:33:46;3.25;;;1.42;;
83055;SDS011;72881;43.514;1.510;2024-01-30T03:36:12;2.88;;;1.40;;
83055;SDS011;72881;43.514;1.510;2024-01-30T03:38:37;3.35;;;1.50;;
83055;SDS011;72881;43.514;1.510;2024-01-30T03:41:03;2.38;;;1.40;;
83055;SDS011;72881;43.514;1.510;2024-01-30T03:43:28;3.22;;;1.55;;
83055;SDS011;72881;43.514;1.510;2024-01-30T03:45:54;1.98;;;1.30;;
83055;SDS011;72881;43.514;1.510;2024-01-30T03:48:20;2.25;;;1.33;;
83055;SDS011;72881;43.514;1.510;2024-01-30T03:50:46;2.88;;;1.38;;
83055;SDS011;72881;43.514;1.510;2024-01-30T03:53:11;1.85;;;1.20;;
83055;SDS011;72881;43.514;1.510;2024-01-30T03:55:36;2.85;;;1.65;;
83055;SDS011;72881;43.514;1.510;2024-01-30T03:58:02;1.67;;;1.20;;
83055;SDS011;72881;43.514;1.510;2024-01-30T04:00:27;1.73;;;1.20;;
83055;SDS011;72881;43.514;1.510;2024-01-30T04:02:53;2.58;;;1.40;;
83055;SDS011;72881;43.514;1.510;2024-01-30T04:05:18;2.63;;;1.20;;
83055;SDS011;72881;43.514;1.510;2024-01-30T04:07:43;3.05;;;1.30;;
83055;SDS011;72881;43.514;1.510;2024-01-30T04:10:09;1.98;;;1.20;;
83055;SDS011;72881;43.514;1.510;2024-01-30T04:12:35;1.65;;;1.15;;
83055;SDS011;72881;43.514;1.510;2024-01-30T04:15:01;3.63;;;1.42;;
83055;SDS011;72881;43.514;1.510;2024-01-30T04:17:27;2.20;;;1.17;;
83055;SDS011;72881;43.514;1.510;2024-01-30T04:19:54;2.38;;;1.20;;
83055;SDS011;72881;43.514;1.510;2024-01-30T04:22:19;2.33;;;1.40;;
83055;SDS011;72881;43.514;1.510;2024-01-30T04:24:45;2.72;;;1.35;;
83055;SDS011;72881;43.514;1.510;2024-01-30T04:27:10;1.70;;;1.08;;
83055;SDS011;72881;43.514;1.510;2024-01-30T04:29:35;2.38;;;1.25;;
83055;SDS011;72881;43.514;1.510;2024-01-30T04:32:01;2.83;;;1.27;;
83055;SDS011;72881;43.514;1.510;2024-01-30T04:34:26;2.58;;;1.20;;
83055;SDS011;72881;43.514;1.510;2024-01-30T04:36:52;2.30;;;1.20;;
83055;SDS011;72881;43.514;1.510;2024-01-30T04:39:17;2.38;;;1.45;;
83055;SDS011;72881;43.514;1.510;2024-01-30T04:41:42;2.25;;;1.13;;
83055;SDS011;72881;43.514;1.510;2024-01-30T04:44:08;2.53;;;1.23;;
83055;SDS011;72881;43.514;1.510;2024-01-30T04:46:33;1.77;;;1.10;;
83055;SDS011;72881;43.514;1.510;2024-01-30T04:49:01;2.53;;;1.40;;
83055;SDS011;72881;43.514;1.510;2024-01-30T04:51:27;2.78;;;1.20;;
83055;SDS011;72881;43.514;1.510;2024-01-30T04:53:52;1.70;;;1.15;;
83055;SDS011;72881;43.514;1.510;2024-01-30T04:56:17;2.97;;;1.30;;
83055;SDS011;72881;43.514;1.510;2024-01-30T04:58:43;2.30;;;1.30;;
83055;SDS011;72881;43.514;1.510;2024-01-30T05:01:08;2.08;;;1.20;;
83055;SDS011;72881;43.514;1.510;2024-01-30T05:03:33;2.05;;;1.20;;
83055;SDS011;72881;43.514;1.510;2024-01-30T05:06:00;2.20;;;1.23;;
83055;SDS011;72881;43.514;1.510;2024-01-30T05:08:25;1.90;;;1.20;;
83055;SDS011;72881;43.514;1.510;2024-01-30T05:10:50;2.25;;;1.30;;
83055;SDS011;72881;43.514;1.510;2024-01-30T05:13:16;2.33;;;1.20;;
83055;SDS011;72881;43.514;1.510;2024-01-30T05:15:41;1.80;;;1.13;;
83055;SDS011;72881;43.514;1.510;2024-01-30T05:18:06;2.60;;;1.40;;
83055;SDS011;72881;43.514;1.510;2024-01-30T05:20:32;2.10;;;1.27;;
83055;SDS011;72881;43.514;1.510;2024-01-30T05:22:57;3.90;;;1.40;;
83055;SDS011;72881;43.514;1.510;2024-01-30T05:25:23;1.90;;;1.33;;
83055;SDS011;72881;43.514;1.510;2024-01-30T05:27:48;3.00;;;1.13;;
83055;SDS011;72881;43.514;1.510;2024-01-30T05:30:14;1.60;;;1.23;;
83055;SDS011;72881;43.514;1.510;2024-01-30T05:32:39;1.92;;;1.10;;
83055;SDS011;72881;43.514;1.510;2024-01-30T05:35:05;2.38;;;1.20;;
83055;SDS011;72881;43.514;1.510;2024-01-30T05:37:30;1.92;;;1.20;;
83055;SDS011;72881;43.514;1.510;2024-01-30T05:39:55;2.47;;;1.30;;
83055;SDS011;72881;43.514;1.510;2024-01-30T05:42:21;2.17;;;1.25;;
83055;SDS011;72881;43.514;1.510;2024-01-30T05:44:46;1.90;;;1.23;;
83055;SDS011;72881;43.514;1.510;2024-01-30T05:47:12;2.63;;;1.30;;
83055;SDS011;72881;43.514;1.510;2024-01-30T05:49:37;2.00;;;1.20;;
83055;SDS011;72881;43.514;1.510;2024-01-30T05:52:04;2.67;;;1.33;;
83055;SDS011;72881;43.514;1.510;2024-01-30T05:54:29;2.38;;;1.27;;
83055;SDS011;72881;43.514;1.510;2024-01-30T05:56:55;1.88;;;1.23;;
83055;SDS011;72881;43.514;1.510;2024-01-30T05:59:20;2.20;;;1.30;;
83055;SDS011;72881;43.514;1.510;2024-01-30T06:01:46;2.15;;;1.10;;
83055;SDS011;72881;43.514;1.510;2024-01-30T06:04:12;2.08;;;1.20;;
83055;SDS011;72881;43.514;1.510;2024-01-30T06:06:38;2.83;;;1.45;;
83055;SDS011;72881;43.514;1.510;2024-01-30T06:09:03;2.10;;;1.20;;
83055;SDS011;72881;43.514;1.510;2024-01-30T06:11:29;2.30;;;1.10;;
83055;SDS011;72881;43.514;1.510;2024-01-30T06:13:54;1.77;;;1.02;;
83055;SDS011;72881;43.514;1.510;2024-01-30T06:16:19;1.73;;;1.05;;
83055;SDS011;72881;43.514;1.510;2024-01-30T06:18:46;2.20;;;1.00;;
83055;SDS011;72881;43.514;1.510;2024-01-30T06:21:12;1.85;;;1.17;;
83055;SDS011;72881;43.514;1.510;2024-01-30T06:23:38;1.50;;;1.05;;
83055;SDS011;72881;43.514;1.510;2024-01-30T06:26:03;2.10;;;1.13;;
83055;SDS011;72881;43.514;1.510;2024-01-30T06:28:29;2.30;;;1.30;;
83055;SDS011;72881;43.514;1.510;2024-01-30T06:30:55;1.92;;;1.10;;
83055;SDS011;72881;43.514;1.510;2024-01-30T06:33:20;2.30;;;1.00;;
83055;SDS011;72881;43.514;1.510;2024-01-30T06:35:46;2.17;;;1.20;;
83055;SDS011;72881;43.514;1.510;2024-01-30T06:38:11;2.05;;;1.02;;
83055;SDS011;72881;43.514;1.510;2024-01-30T06:40:38;2.17;;;1.20;;
83055;SDS011;72881;43.514;1.510;2024-01-30T06:43:04;2.75;;;1.15;;
83055;SDS011;72881;43.514;1.510;2024-01-30T06:45:30;2.83;;;1.35;;
83055;SDS011;72881;43.514;1.510;2024-01-30T06:47:55;2.20;;;1.20;;
83055;SDS011;72881;43.514;1.510;2024-01-30T06:50:20;1.73;;;1.20;;
83055;SDS011;72881;43.514;1.510;2024-01-30T06:52:46;2.67;;;1.30;;
83055;SDS011;72881;43.514;1.510;2024-01-30T06:55:11;2.42;;;1.10;;
83055;SDS011;72881;43.514;1.510;2024-01-30T06:57:37;3.17;;;1.23;;
83055;SDS011;72881;43.514;1.510;2024-01-30T07:00:02;2.13;;;1.25;;
83055;SDS011;72881;43.514;1.510;2024-01-30T07:02:28;2.15;;;1.05;;
83055;SDS011;72881;43.514;1.510;2024-01-30T07:04:53;2.35;;;1.20;;
83055;SDS011;72881;43.514;1.510;2024-01-30T07:07:19;2.17;;;1.30;;
83055;SDS011;72881;43.514;1.510;2024-01-30T07:09:44;2.15;;;1.08;;
83055;SDS011;72881;43.514;1.510;2024-01-30T07:12:10;2.00;;;1.13;;
83055;SDS011;72881;43.514;1.510;2024-01-30T07:14:35;2.00;;;1.10;;
83055;SDS011;72881;43.514;1.510;2024-01-30T07:17:01;2.20;;;1.13;;
83055;SDS011;72881;43.514;1.510;2024-01-30T07:19:26;2.50;;;1.20;;
83055;SDS011;72881;43.514;1.510;2024-01-30T07:21:52;1.80;;;1.08;;
83055;SDS011;72881;43.514;1.510;2024-01-30T07:24:17;2.30;;;1.00;;
83055;SDS011;72881;43.514;1.510;2024-01-30T07:26:43;3.05;;;1.15;;
83055;SDS011;72881;43.514;1.510;2024-01-30T07:29:08;2.17;;;1.20;;
83055;SDS011;72881;43.514;1.510;2024-01-30T07:31:33;2.17;;;1.13;;
83055;SDS011;72881;43.514;1.510;2024-01-30T07:33:59;27.85;;;3.50;;
83055;SDS011;72881;43.514;1.510;2024-01-30T07:36:24;3.63;;;1.55;;
83055;SDS011;72881;43.514;1.510;2024-01-30T07:38:50;6.20;;;1.42;;
83055;SDS011;72881;43.514;1.510;2024-01-30T07:41:15;6.72;;;1.20;;
83055;SDS011;72881;43.514;1.510;2024-01-30T07:43:40;3.80;;;1.40;;
83055;SDS011;72881;43.514;1.510;2024-01-30T07:46:06;2.13;;;1.20;;
83055;SDS011;72881;43.514;1.510;2024-01-30T07:48:34;2.15;;;1.08;;
83055;SDS011;72881;43.514;1.510;2024-01-30T07:51:00;3.20;;;1.20;;
83055;SDS011;72881;43.514;1.510;2024-01-30T07:53:25;3.33;;;1.35;;
83055;SDS011;72881;43.514;1.510;2024-01-30T07:55:51;4.47;;;1.63;;
83055;SDS011;72881;43.514;1.510;2024-01-30T08:00:01;3.75;;;1.42;;
83055;SDS011;72881;43.514;1.510;2024-01-30T08:02:28;4.18;;;1.20;;
83055;SDS011;72881;43.514;1.510;2024-01-30T08:04:53;2.50;;;1.40;;
83055;SDS011;72881;43.514;1.510;2024-01-30T08:07:18;5.00;;;1.40;;
83055;SDS011;72881;43.514;1.510;2024-01-30T08:09:44;3.28;;;1.38;;
83055;SDS011;72881;43.514;1.510;2024-01-30T08:12:10;3.50;;;1.50;;
83055;SDS011;72881;43.514;1.510;2024-01-30T08:14:35;2.25;;;1.15;;
83055;SDS011;72881;43.514;1.510;2024-01-30T08:17:00;3.28;;;1.40;;
83055;SDS011;72881;43.514;1.510;2024-01-30T08:19:26;3.65;;;1.40;;
83055;SDS011;72881;43.514;1.510;2024-01-30T08:21:51;4.40;;;1.30;;
83055;SDS011;72881;43.514;1.510;2024-01-30T08:24:16;3.22;;;1.40;;
83055;SDS011;72881;43.514;1.510;2024-01-30T08:26:42;4.53;;;1.70;;
83055;SDS011;72881;43.514;1.510;2024-01-30T08:29:07;3.08;;;1.20;;
83055;SDS011;72881;43.514;1.510;2024-01-30T08:31:33;4.65;;;1.40;;
83055;SDS011;72881;43.514;1.510;2024-01-30T08:33:58;4.07;;;1.52;;
83055;SDS011;72881;43.514;1.510;2024-01-30T08:36:23;5.20;;;1.50;;
83055;SDS011;72881;43.514;1.510;2024-01-30T08:38:50;2.22;;;1.17;;
83055;SDS011;72881;43.514;1.510;2024-01-30T08:41:16;4.55;;;1.45;;
83055;SDS011;72881;43.514;1.510;2024-01-30T08:43:41;3.67;;;1.38;;
83055;SDS011;72881;43.514;1.510;2024-01-30T08:46:07;5.65;;;1.67;;
83055;SDS011;72881;43.514;1.510;2024-01-30T08:48:32;4.03;;;1.50;;
83055;SDS011;72881;43.514;1.510;2024-01-30T08:50:57;4.78;;;1.80;;
83055;SDS011;72881;43.514;1.510;2024-01-30T08:53:23;5.82;;;1.90;;
83055;SDS011;72881;43.514;1.510;2024-01-30T08:55:48;7.82;;;2.03;;
83055;SDS011;72881;43.514;1.510;2024-01-30T08:58:13;7.72;;;2.45;;
83055;SDS011;72881;43.514;1.510;2024-01-30T09:00:40;10.55;;;2.53;;
83055;SDS011;72881;43.514;1.510;2024-01-30T09:03:06;10.65;;;2.90;;
83055;SDS011;72881;43.514;1.510;2024-01-30T09:05:33;12.98;;;3.35;;
83055;SDS011;72881;43.514;1.510;2024-01-30T09:07:58;15.73;;;3.05;;
83055;SDS011;72881;43.514;1.510;2024-01-30T09:10:23;10.68;;;3.05;;
83055;SDS011;72881;43.514;1.510;2024-01-30T09:12:49;16.60;;;3.20;;
83055;SDS011;72881;43.514;1.510;2024-01-30T09:15:14;13.75;;;3.78;;
83055;SDS011;72881;43.514;1.510;2024-01-30T09:17:40;14.38;;;3.28;;
83055;SDS011;72881;43.514;1.510;2024-01-30T09:20:05;12.30;;;3.75;;
83055;SDS011;72881;43.514;1.510;2024-01-30T09:22:31;16.23;;;3.70;;
83055;SDS011;72881;43.514;1.510;2024-01-30T09:24:57;14.30;;;3.72;;
83055;SDS011;72881;43.514;1.510;2024-01-30T09:27:22;15.07;;;3.80;;
83055;SDS011;72881;43.514;1.510;2024-01-30T09:29:48;11.82;;;3.58;;
83055;SDS011;72881;43.514;1.510;2024-01-30T09:32:13;11.20;;;3.50;;
83055;SDS011;72881;43.514;1.510;2024-01-30T09:34:38;13.80;;;3.50;;
83055;SDS011;72881;43.514;1.510;2024-01-30T09:37:04;13.25;;;3.75;;
83055;SDS011;72881;43.514;1.510;2024-01-30T09:39:30;16.17;;;4.00;;
83055;SDS011;72881;43.514;1.510;2024-01-30T09:41:57;13.07;;;3.63;;
83055;SDS011;72881;43.514;1.510;2024-01-30T09:44:28;11.95;;;3.67;;
83055;SDS011;72881;43.514;1.510;2024-01-30T09:46:54;11.90;;;3.50;;
83055;SDS011;72881;43.514;1.510;2024-01-30T09:49:20;11.05;;;3.67;;
83055;SDS011;72881;43.514;1.510;2024-01-30T09:51:46;13.73;;;3.75;;
83055;SDS011;72881;43.514;1.510;2024-01-30T09:54:13;14.40;;;4.15;;
83055;SDS011;72881;43.514;1.510;2024-01-30T09:56:40;15.35;;;3.90;;
83055;SDS011;72881;43.514;1.510;2024-01-30T09:59:05;13.75;;;3.97;;
83055;SDS011;72881;43.514;1.510;2024-01-30T10:01:30;15.57;;;3.55;;
83055;SDS011;72881;43.514;1.510;2024-01-30T10:03:56;13.60;;;3.55;;
83055;SDS011;72881;43.514;1.510;2024-01-30T10:06:22;11.93;;;3.70;;
83055;SDS011;72881;43.514;1.510;2024-01-30T10:08:49;10.30;;;3.72;;
83055;SDS011;72881;43.514;1.510;2024-01-30T10:11:15;15.27;;;3.88;;
83055;SDS011;72881;43.514;1.510;2024-01-30T10:13:40;16.85;;;3.85;;
83055;SDS011;72881;43.514;1.510;2024-01-30T10:16:05;12.73;;;3.67;;
83055;SDS011;72881;43.514;1.510;2024-01-30T10:18:31;12.82;;;3.67;;
83055;SDS011;72881;43.514;1.510;2024-01-30T10:20:57;9.23;;;3.38;;
83055;SDS011;72881;43.514;1.510;2024-01-30T10:23:24;14.68;;;3.78;;
83055;SDS011;72881;43.514;1.510;2024-01-30T10:25:50;8.60;;;3.13;;
83055;SDS011;72881;43.514;1.510;2024-01-30T10:28:16;11.68;;;3.42;;
83055;SDS011;72881;43.514;1.510;2024-01-30T10:30:42;12.30;;;3.80;;
83055;SDS011;72881;43.514;1.510;2024-01-30T10:33:07;13.40;;;3.20;;
83055;SDS011;72881;43.514;1.510;2024-01-30T10:35:33;13.48;;;3.28;;
83055;SDS011;72881;43.514;1.510;2024-01-30T10:37:58;11.90;;;3.72;;
83055;SDS011;72881;43.514;1.510;2024-01-30T10:40:25;9.40;;;3.40;;
83055;SDS011;72881;43.514;1.510;2024-01-30T10:42:53;11.15;;;3.35;;
83055;SDS011;72881;43.514;1.510;2024-01-30T10:45:20;10.38;;;2.90;;
83055;SDS011;72881;43.514;1.510;2024-01-30T10:47:50;11.40;;;3.95;;
83055;SDS011;72881;43.514;1.510;2024-01-30T10:50:18;10.38;;;3.20;;
83055;SDS011;72881;43.514;1.510;2024-01-30T10:52:44;11.15;;;3.30;;
83055;SDS011;72881;43.514;1.510;2024-01-30T10:55:10;12.63;;;3.50;;
83055;SDS011;72881;43.514;1.510;2024-01-30T10:57:36;9.85;;;3.28;;
83055;SDS011;72881;43.514;1.510;2024-01-30T11:00:08;8.98;;;3.13;;
83055;SDS011;72881;43.514;1.510;2024-01-30T11:02:36;9.77;;;3.10;;
83055;SDS011;72881;43.514;1.510;2024-01-30T11:05:04;9.52;;;2.80;;
83055;SDS011;72881;43.514;1.510;2024-01-30T11:07:30;12.18;;;3.13;;
83055;SDS011;72881;43.514;1.510;2024-01-30T11:12:25;10.95;;;3.13;;
83055;SDS011;72881;43.514;1.510;2024-01-30T11:15:09;9.25;;;3.13;;
83055;SDS011;72881;43.514;1.510;2024-01-30T11:20:16;8.93;;;3.05;;
83055;SDS011;72881;43.514;1.510;2024-01-30T11:22:45;7.78;;;3.00;;
83055;SDS011;72881;43.514;1.510;2024-01-30T11:25:12;10.05;;;3.25;;
83055;SDS011;72881;43.514;1.510;2024-01-30T11:27:38;9.63;;;3.03;;
83055;SDS011;72881;43.514;1.510;2024-01-30T11:30:03;9.63;;;3.15;;
83055;SDS011;72881;43.514;1.510;2024-01-30T11:32:30;7.45;;;2.90;;
83055;SDS011;72881;43.514;1.510;2024-01-30T11:34:55;9.95;;;3.22;;
83055;SDS011;72881;43.514;1.510;2024-01-30T11:37:21;9.65;;;3.15;;
83055;SDS011;72881;43.514;1.510;2024-01-30T11:39:47;6.82;;;2.72;;
83055;SDS011;72881;43.514;1.510;2024-01-30T11:42:13;8.25;;;3.30;;
83055;SDS011;72881;43.514;1.510;2024-01-30T11:44:38;7.05;;;2.50;;
83055;SDS011;72881;43.514;1.510;2024-01-30T11:47:04;8.52;;;3.08;;
83055;SDS011;72881;43.514;1.510;2024-01-30T11:49:29;8.57;;;2.95;;
83055;SDS011;72881;43.514;1.510;2024-01-30T11:51:55;7.05;;;2.60;;
83055;SDS011;72881;43.514;1.510;2024-01-30T11:54:20;9.55;;;2.92;;
83055;SDS011;72881;43.514;1.510;2024-01-30T11:56:45;7.97;;;2.83;;
83055;SDS011;72881;43.514;1.510;2024-01-30T11:59:11;9.10;;;3.10;;
83055;SDS011;72881;43.514;1.510;2024-01-30T12:01:36;9.52;;;2.80;;
83055;SDS011;72881;43.514;1.510;2024-01-30T12:04:02;7.57;;;2.70;;
83055;SDS011;72881;43.514;1.510;2024-01-30T12:06:28;9.80;;;2.83;;
83055;SDS011;72881;43.514;1.510;2024-01-30T12:08:57;8.95;;;3.15;;
83055;SDS011;72881;43.514;1.510;2024-01-30T12:11:24;11.25;;;2.95;;
83055;SDS011;72881;43.514;1.510;2024-01-30T12:13:49;10.80;;;2.92;;
83055;SDS011;72881;43.514;1.510;2024-01-30T12:16:16;10.77;;;3.47;;
83055;SDS011;72881;43.514;1.510;2024-01-30T12:18:42;11.95;;;2.78;;
83055;SDS011;72881;43.514;1.510;2024-01-30T12:21:07;10.05;;;3.40;;
83055;SDS011;72881;43.514;1.510;2024-01-30T12:23:34;8.30;;;2.47;;
83055;SDS011;72881;43.514;1.510;2024-01-30T12:26:00;9.95;;;2.53;;
83055;SDS011;72881;43.514;1.510;2024-01-30T12:28:27;9.23;;;2.72;;
83055;SDS011;72881;43.514;1.510;2024-01-30T12:30:56;7.15;;;2.55;;
83055;SDS011;72881;43.514;1.510;2024-01-30T12:33:26;7.85;;;2.75;;
83055;SDS011;72881;43.514;1.510;2024-01-30T12:35:51;12.52;;;3.03;;
83055;SDS011;72881;43.514;1.510;2024-01-30T12:38:17;7.63;;;2.78;;
83055;SDS011;72881;43.514;1.510;2024-01-30T12:40:42;7.80;;;2.78;;
83055;SDS011;72881;43.514;1.510;2024-01-30T12:43:08;7.93;;;2.60;;
83055;SDS011;72881;43.514;1.510;2024-01-30T12:45:33;7.40;;;2.40;;
83055;SDS011;72881;43.514;1.510;2024-01-30T12:47:59;7.95;;;2.97;;
83055;SDS011;72881;43.514;1.510;2024-01-30T12:50:24;10.75;;;3.17;;
83055;SDS011;72881;43.514;1.510;2024-01-30T12:52:50;8.45;;;2.80;;
83055;SDS011;72881;43.514;1.510;2024-01-30T12:55:15;15.07;;;3.40;;
83055;SDS011;72881;43.514;1.510;2024-01-30T12:57:41;8.07;;;2.90;;
83055;SDS011;72881;43.514;1.510;2024-01-30T13:00:08;7.97;;;2.65;;
83055;SDS011;72881;43.514;1.510;2024-01-30T13:02:33;7.55;;;3.17;;
83055;SDS011;72881;43.514;1.510;2024-01-30T13:05:02;8.52;;;2.90;;
83055;SDS011;72881;43.514;1.510;2024-01-30T13:07:28;9.57;;;2.80;;
83055;SDS011;72881;43.514;1.510;2024-01-30T13:09:53;8.02;;;2.65;;
83055;SDS011;72881;43.514;1.510;2024-01-30T13:12:19;9.27;;;2.85;;
83055;SDS011;72881;43.514;1.510;2024-01-30T13:14:44;9.35;;;3.17;;
83055;SDS011;72881;43.514;1.510;2024-01-30T13:17:09;7.57;;;3.03;;
83055;SDS011;72881;43.514;1.510;2024-01-30T13:19:35;8.77;;;3.05;;
83055;SDS011;72881;43.514;1.510;2024-01-30T13:22:00;7.60;;;3.10;;
83055;SDS011;72881;43.514;1.510;2024-01-30T13:24:25;7.60;;;2.75;;
83055;SDS011;72881;43.514;1.510;2024-01-30T13:26:51;6.80;;;2.92;;
83055;SDS011;72881;43.514;1.510;2024-01-30T13:29:18;5.63;;;2.63;;
83055;SDS011;72881;43.514;1.510;2024-01-30T13:31:43;7.90;;;2.80;;
83055;SDS011;72881;43.514;1.510;2024-01-30T13:34:12;9.13;;;3.38;;
83055;SDS011;72881;43.514;1.510;2024-01-30T13:36:38;8.32;;;2.90;;
83055;SDS011;72881;43.514;1.510;2024-01-30T13:39:04;7.05;;;2.72;;
83055;SDS011;72881;43.514;1.510;2024-01-30T13:41:33;5.72;;;2.45;;
83055;SDS011;72881;43.514;1.510;2024-01-30T13:43:58;6.50;;;2.40;;
83055;SDS011;72881;43.514;1.510;2024-01-30T13:46:24;5.80;;;2.55;;
83055;SDS011;72881;43.514;1.510;2024-01-30T13:48:50;7.68;;;2.80;;
83055;SDS011;72881;43.514;1.510;2024-01-30T13:51:15;11.25;;;2.72;;
83055;SDS011;72881;43.514;1.510;2024-01-30T13:53:42;8.15;;;2.88;;
83055;SDS011;72881;43.514;1.510;2024-01-30T13:56:07;8.07;;;2.90;;
83055;SDS011;72881;43.514;1.510;2024-01-30T13:58:33;6.93;;;2.60;;
83055;SDS011;72881;43.514;1.510;2024-01-30T14:00:58;6.60;;;2.22;;
83055;SDS011;72881;43.514;1.510;2024-01-30T14:03:24;7.22;;;2.80;;
83055;SDS011;72881;43.514;1.510;2024-01-30T14:05:49;5.20;;;2.35;;
83055;SDS011;72881;43.514;1.510;2024-01-30T14:08:15;8.45;;;3.00;;
83055;SDS011;72881;43.514;1.510;2024-01-30T14:10:40;6.93;;;2.97;;
83055;SDS011;72881;43.514;1.510;2024-01-30T14:13:06;8.68;;;2.80;;
83055;SDS011;72881;43.514;1.510;2024-01-30T14:15:31;6.65;;;2.70;;
83055;SDS011;72881;43.514;1.510;2024-01-30T14:17:56;5.60;;;2.63;;
83055;SDS011;72881;43.514;1.510;2024-01-30T14:20:22;7.05;;;2.75;;
83055;SDS011;72881;43.514;1.510;2024-01-30T14:22:47;5.63;;;2.55;;
83055;SDS011;72881;43.514;1.510;2024-01-30T14:25:12;6.82;;;2.65;;
83055;SDS011;72881;43.514;1.510;2024-01-30T14:27:38;6.45;;;2.38;;
83055;SDS011;72881;43.514;1.510;2024-01-30T14:30:03;6.10;;;2.30;;
83055;SDS011;72881;43.514;1.510;2024-01-30T14:32:29;3.88;;;2.20;;
83055;SDS011;72881;43.514;1.510;2024-01-30T14:34:55;6.22;;;2.50;;
83055;SDS011;72881;43.514;1.510;2024-01-30T14:37:21;6.15;;;2.40;;
83055;SDS011;72881;43.514;1.510;2024-01-30T14:39:47;6.10;;;2.50;;
83055;SDS011;72881;43.514;1.510;2024-01-30T14:42:15;6.47;;;2.65;;
83055;SDS011;72881;43.514;1.510;2024-01-30T14:44:41;5.18;;;2.20;;
83055;SDS011;72881;43.514;1.510;2024-01-30T14:47:07;5.45;;;2.70;;